Balt Flot 16 — UGFX — position and weather

sailwx.info

Track history (hours):
 
Tides and Currents Weather Stations Pressure Air Temp Water Temp Dewpoint Dewpoint Depression Visibility Wind Speed Wind Dir Waves Ship Positions

Balt Flot 16

Last reported at 2018-Jun-04 14:48 UTC. Time now 2018-Jun-18 02:15 UTC.
Position N 45°48' E 036°58'.
Warning: this ship's position is 13 days out of date.

Length 141 m; draft 3.6 m.

Type: Tanker. MMSI: 273391340.

Date/timePositionNaut miles runAvg speedWind from/ knotsBaromVisibWave heightAir tempDewpointWater temp
2018-Jun-04 14:48N 45°48' E 036°58'4 8.6
2018-Jun-04 14:19N 45°44' E 036°55'3 8.6
2018-Jun-04 13:57N 45°41' E 036°54'5 8.6
2018-Jun-04 13:24N 45°37' E 036°52'3 8.6
2018-Jun-04 13:00N 45°33' E 036°50'4 8.7
2018-Jun-04 12:30N 45°29' E 036°48'4 8.8
2018-Jun-04 12:00N 45°26' E 036°44'4 8.2
2018-Jun-04 11:30N 45°23' E 036°40'5 9.7
2018-Jun-04 11:00N 45°20' E 036°35'5 8.9
2018-Jun-04 10:30N 45°18' E 036°29'3 6.3
2018-Jun-04 10:00N 45°14' E 036°29'3 6.5
2018-Jun-04 09:30N 45°11' E 036°30'0 0.1
2018-Jun-04 08:56N 45°11' E 036°30'0 0.0
2018-Jun-04 08:25N 45°11' E 036°30'0 0.0
2018-Jun-04 07:52N 45°11' E 036°30'0 0.0
2018-Jun-04 07:29N 45°11' E 036°30'0 0.1
2018-Jun-04 06:48N 45°11' E 036°30'0 0.2
2018-Jun-04 06:24N 45°11' E 036°30'0 0.5
2018-Jun-04 06:00N 45°11' E 036°30'4 7.9
2018-Jun-04 05:30N 45°07' E 036°30'4 8.7
2018-Jun-04 05:00N 45°03' E 036°31'29 7.0
2018-Jun-04 00:51N 44°39' E 036°08'3 8.3
2018-Jun-04 00:30N 44°38' E 036°04'43 7.9
2018-Jun-03 19:03N 44°19' E 035°09'1 8.3
2018-Jun-03 19:00N 44°18' E 035°09'7 8.1
2018-Jun-03 18:07N 44°15' E 034°60'1 7.9
2018-Jun-03 17:58N 44°15' E 034°58'4 7.8
2018-Jun-03 17:30N 44°13' E 034°54'4 8.0
2018-Jun-03 16:59N 44°11' E 034°49'4 8.2
2018-Jun-03 16:30N 44°09' E 034°44'4 8.5
2018-Jun-03 16:00N 44°08' E 034°39'6 8.7
2018-Jun-03 15:19N 44°05' E 034°31'3 8.7
2018-Jun-03 15:00N 44°04' E 034°27'4 8.7
2018-Jun-03 14:30N 44°04' E 034°21'4 8.4
2018-Jun-03 14:00N 44°03' E 034°16'4 8.1
2018-Jun-03 13:29N 44°03' E 034°10'4 8.2
2018-Jun-03 13:00N 44°03' E 034°04'4 8.1
2018-Jun-03 12:30N 44°03' E 033°59'4 8.1
2018-Jun-03 12:00N 44°02' E 033°53'126 8.0
2018-Jun-02 20:22N 44°05' E 030°58'59 8.5
2018-Jun-02 13:28N 44°10' E 029°36'4 8.2
2018-Jun-02 12:57N 44°11' E 029°30'4 8.1
2018-Jun-02 12:30N 44°11' E 029°25'4 8.0
2018-Jun-02 12:00N 44°11' E 029°20'4 7.8
2018-Jun-02 11:30N 44°12' E 029°14'4 7.6
2018-Jun-02 11:00N 44°12' E 029°09'4 8.1
2018-Jun-02 10:30N 44°12' E 029°03'4 8.3
2018-Jun-02 10:00N 44°12' E 028°58'4 8.6
2018-Jun-02 09:30N 44°14' E 028°52'4 8.4
2018-Jun-02 09:00N 44°15' E 028°46'4 8.0
2018-Jun-02 08:30N 44°18' E 028°42'3 5.2
2018-Jun-02 07:59N 44°20' E 028°40'0 0.0
2018-Jun-02 07:28N 44°20' E 028°40'0 0.0
2018-Jun-02 06:57N 44°20' E 028°40'0 0.0
2018-Jun-02 06:24N 44°20' E 028°40'0 0.0
2018-Jun-02 05:55N 44°20' E 028°40'0 0.0
2018-Jun-02 05:29N 44°20' E 028°40'0 0.0
2018-Jun-02 05:00N 44°20' E 028°40'0 0.0
2018-Jun-02 04:28N 44°20' E 028°40'0 0.0
2018-Jun-02 03:59N 44°20' E 028°40'0 0.0
2018-Jun-02 03:29N 44°20' E 028°40'0 0.0
2018-Jun-02 02:58N 44°20' E 028°40'0 0.0
2018-Jun-02 02:29N 44°20' E 028°40'0 0.0
2018-Jun-02 01:54N 44°20' E 028°40'0 0.0
2018-Jun-02 01:30N 44°20' E 028°40'0 0.0
2018-Jun-02 01:00N 44°20' E 028°40'0 0.0
2018-Jun-02 00:27N 44°20' E 028°40'0 0.0
2018-Jun-02 00:00N 44°20' E 028°40'0 0.0
2018-Jun-01 23:27N 44°20' E 028°40'0 0.0
2018-Jun-01 22:58N 44°20' E 028°40'0 0.0
2018-Jun-01 22:28N 44°20' E 028°40'0 0.0
2018-Jun-01 22:00N 44°20' E 028°40'0 0.0
2018-Jun-01 21:28N 44°20' E 028°40'0 0.0
2018-Jun-01 20:58N 44°20' E 028°40'0 0.0
2018-Jun-01 20:28N 44°20' E 028°40'0 0.0
2018-Jun-01 19:59N 44°20' E 028°40'0 0.0
2018-Jun-01 19:29N 44°20' E 028°40'0 0.0
2018-Jun-01 18:59N 44°20' E 028°40'0 0.0
2018-Jun-01 18:29N 44°20' E 028°40'0 0.0
2018-Jun-01 18:00N 44°20' E 028°40'0 0.0
2018-Jun-01 17:30N 44°20' E 028°40'0 0.0
2018-Jun-01 16:59N 44°20' E 028°40'0 0.0
2018-Jun-01 16:26N 44°20' E 028°40'0 0.0
2018-Jun-01 15:55N 44°20' E 028°40'0 0.0
2018-Jun-01 15:29N 44°20' E 028°40'0 0.0
2018-Jun-01 14:59N 44°20' E 028°40'0 0.0
2018-Jun-01 14:30N 44°20' E 028°40'0 0.0
2018-Jun-01 14:00N 44°20' E 028°40'0 0.0
2018-Jun-01 13:29N 44°20' E 028°40'0 0.0
2018-Jun-01 12:57N 44°20' E 028°40'0 0.0
2018-Jun-01 12:30N 44°20' E 028°40'0 0.0
2018-Jun-01 11:54N 44°20' E 028°40'0 0.0
2018-Jun-01 11:30N 44°20' E 028°40'0 0.0
2018-Jun-01 10:59N 44°20' E 028°40'0 0.0
2018-Jun-01 10:29N 44°20' E 028°40'0 0.0
2018-Jun-01 09:59N 44°20' E 028°40'0 0.0
2018-Jun-01 09:30N 44°20' E 028°40'0 0.0
2018-Jun-01 08:59N 44°20' E 028°40'0 0.0
2018-Jun-01 08:29N 44°20' E 028°40'0 0.0
2018-Jun-01 07:59N 44°20' E 028°40'0 0.0
2018-Jun-01 07:29N 44°20' E 028°40'0 0.0
2018-Jun-01 06:59N 44°20' E 028°40'0 0.0
2018-Jun-01 06:30N 44°20' E 028°40'0 0.0
2018-Jun-01 05:58N 44°20' E 028°40'0 0.0
2018-Jun-01 05:28N 44°20' E 028°40'0 0.0
2018-Jun-01 04:59N 44°20' E 028°40'0 0.0
2018-Jun-01 04:26N 44°20' E 028°40'0 0.0
2018-Jun-01 03:55N 44°20' E 028°40'0 0.0
2018-Jun-01 03:29N 44°20' E 028°40'0 0.0
2018-Jun-01 02:59N 44°20' E 028°40'0 0.0
2018-Jun-01 02:28N 44°20' E 028°40'0 0.0
2018-Jun-01 01:55N 44°20' E 028°40'0 0.0
2018-Jun-01 01:29N 44°20' E 028°40'0 0.0
2018-Jun-01 00:59N 44°20' E 028°40'0 0.0
2018-Jun-01 00:24N 44°20' E 028°40'0 0.0
2018-May-31 23:55N 44°20' E 028°40'0 0.0
2018-May-31 23:28N 44°20' E 028°40'0 0.0
2018-May-31 22:57N 44°20' E 028°40'0 0.0
2018-May-31 22:30N 44°20' E 028°40'0 0.0
2018-May-31 22:00N 44°20' E 028°40'0 0.0
2018-May-31 21:23N 44°20' E 028°40'0 0.0
2018-May-31 21:00N 44°20' E 028°40'0 0.8
2018-May-31 20:31N 44°20' E 028°41'2 4.6
2018-May-31 20:01N 44°18' E 028°43'4 7.5
2018-May-31 19:31N 44°15' E 028°46'4 8.4
2018-May-31 19:01N 44°12' E 028°50'4 8.4
2018-May-31 18:31N 44°09' E 028°54'4 8.0
2018-May-31 18:01N 44°05' E 028°57'4 8.5
2018-May-31 17:31N 44°01' E 028°57'4 7.1
2018-May-31 17:01N 43°58' E 028°57'4 7.0
2018-May-31 16:31N 43°54' E 028°58'4 7.4
2018-May-31 16:00N 43°50' E 028°58'4 7.5
2018-May-31 15:31N 43°47' E 028°58'4 8.6
2018-May-31 15:00N 43°42' E 028°58'4 8.7
2018-May-31 14:31N 43°38' E 028°59'4 8.5
2018-May-31 14:01N 43°34' E 028°59'4 8.4
2018-May-31 13:31N 43°30' E 028°60'4 8.3
2018-May-31 12:59N 43°25' E 029°00'4 8.1
2018-May-31 12:31N 43°22' E 029°01'4 7.9
2018-May-31 12:00N 43°17' E 029°01'4 8.0
2018-May-31 11:30N 43°14' E 029°01'4 8.1
2018-May-31 11:00N 43°09' E 029°01'41 7.7
2018-May-31 05:38N 42°28' E 029°02'1 7.2
2018-May-31 05:27N 42°27' E 029°03'4 7.2
2018-May-31 04:56N 42°23' E 029°03'3 7.1
2018-May-31 04:30N 42°20' E 029°04'4 7.2
2018-May-31 03:59N 42°17' E 029°05'3 7.2
2018-May-31 03:30N 42°13' E 029°06'4 7.1
2018-May-31 03:01N 42°10' E 029°07'3 6.8
2018-May-31 02:30N 42°06' E 029°08'  
Track history (hours):
 
Tides and Currents Weather Stations Pressure Air Temp Water Temp Dewpoint Dewpoint Depression Visibility Wind Speed Wind Dir Waves Ship Positions

Balt Flot 16

Last reported at 2018-Jun-04 14:48 UTC. Time now 2018-Jun-18 02:15 UTC.
Position N 45°48' E 036°58'.
Warning: this ship's position is 13 days out of date.

Length 141 m; draft 3.6 m.

Type: Tanker. MMSI: 273391340.

Date/timePositionNaut miles runAvg speedWind from/ knotsBaromVisibWave heightAir tempDewpointWater temp
2018-Jun-04 14:48N 45°48' E 036°58'4 8.6
2018-Jun-04 14:19N 45°44' E 036°55'3 8.6
2018-Jun-04 13:57N 45°41' E 036°54'5 8.6
2018-Jun-04 13:24N 45°37' E 036°52'3 8.6
2018-Jun-04 13:00N 45°33' E 036°50'4 8.7
2018-Jun-04 12:30N 45°29' E 036°48'4 8.8
2018-Jun-04 12:00N 45°26' E 036°44'4 8.2
2018-Jun-04 11:30N 45°23' E 036°40'5 9.7
2018-Jun-04 11:00N 45°20' E 036°35'5 8.9
2018-Jun-04 10:30N 45°18' E 036°29'3 6.3
2018-Jun-04 10:00N 45°14' E 036°29'3 6.5
2018-Jun-04 09:30N 45°11' E 036°30'0 0.1
2018-Jun-04 08:56N 45°11' E 036°30'0 0.0
2018-Jun-04 08:25N 45°11' E 036°30'0 0.0
2018-Jun-04 07:52N 45°11' E 036°30'0 0.0
2018-Jun-04 07:29N 45°11' E 036°30'0 0.1
2018-Jun-04 06:48N 45°11' E 036°30'0 0.2
2018-Jun-04 06:24N 45°11' E 036°30'0 0.5
2018-Jun-04 06:00N 45°11' E 036°30'4 7.9
2018-Jun-04 05:30N 45°07' E 036°30'4 8.7
2018-Jun-04 05:00N 45°03' E 036°31'29 7.0
2018-Jun-04 00:51N 44°39' E 036°08'3 8.3
2018-Jun-04 00:30N 44°38' E 036°04'43 7.9
2018-Jun-03 19:03N 44°19' E 035°09'1 8.3
2018-Jun-03 19:00N 44°18' E 035°09'7 8.1
2018-Jun-03 18:07N 44°15' E 034°60'1 7.9
2018-Jun-03 17:58N 44°15' E 034°58'4 7.8
2018-Jun-03 17:30N 44°13' E 034°54'4 8.0
2018-Jun-03 16:59N 44°11' E 034°49'4 8.2
2018-Jun-03 16:30N 44°09' E 034°44'4 8.5
2018-Jun-03 16:00N 44°08' E 034°39'6 8.7
2018-Jun-03 15:19N 44°05' E 034°31'3 8.7
2018-Jun-03 15:00N 44°04' E 034°27'4 8.7
2018-Jun-03 14:30N 44°04' E 034°21'4 8.4
2018-Jun-03 14:00N 44°03' E 034°16'4 8.1
2018-Jun-03 13:29N 44°03' E 034°10'4 8.2
2018-Jun-03 13:00N 44°03' E 034°04'4 8.1
2018-Jun-03 12:30N 44°03' E 033°59'4 8.1
2018-Jun-03 12:00N 44°02' E 033°53'126 8.0
2018-Jun-02 20:22N 44°05' E 030°58'59 8.5
2018-Jun-02 13:28N 44°10' E 029°36'4 8.2
2018-Jun-02 12:57N 44°11' E 029°30'4 8.1
2018-Jun-02 12:30N 44°11' E 029°25'4 8.0
2018-Jun-02 12:00N 44°11' E 029°20'4 7.8
2018-Jun-02 11:30N 44°12' E 029°14'4 7.6
2018-Jun-02 11:00N 44°12' E 029°09'4 8.1
2018-Jun-02 10:30N 44°12' E 029°03'4 8.3
2018-Jun-02 10:00N 44°12' E 028°58'4 8.6
2018-Jun-02 09:30N 44°14' E 028°52'4 8.4
2018-Jun-02 09:00N 44°15' E 028°46'4 8.0
2018-Jun-02 08:30N 44°18' E 028°42'3 5.2
2018-Jun-02 07:59N 44°20' E 028°40'0 0.0
2018-Jun-02 07:28N 44°20' E 028°40'0 0.0
2018-Jun-02 06:57N 44°20' E 028°40'0 0.0
2018-Jun-02 06:24N 44°20' E 028°40'0 0.0
2018-Jun-02 05:55N 44°20' E 028°40'0 0.0
2018-Jun-02 05:29N 44°20' E 028°40'0 0.0
2018-Jun-02 05:00N 44°20' E 028°40'0 0.0
2018-Jun-02 04:28N 44°20' E 028°40'0 0.0
2018-Jun-02 03:59N 44°20' E 028°40'0 0.0
2018-Jun-02 03:29N 44°20' E 028°40'0 0.0
2018-Jun-02 02:58N 44°20' E 028°40'0 0.0
2018-Jun-02 02:29N 44°20' E 028°40'0 0.0
2018-Jun-02 01:54N 44°20' E 028°40'0 0.0
2018-Jun-02 01:30N 44°20' E 028°40'0 0.0
2018-Jun-02 01:00N 44°20' E 028°40'0 0.0
2018-Jun-02 00:27N 44°20' E 028°40'0 0.0
2018-Jun-02 00:00N 44°20' E 028°40'0 0.0
2018-Jun-01 23:27N 44°20' E 028°40'0 0.0
2018-Jun-01 22:58N 44°20' E 028°40'0 0.0
2018-Jun-01 22:28N 44°20' E 028°40'0 0.0
2018-Jun-01 22:00N 44°20' E 028°40'0 0.0
2018-Jun-01 21:28N 44°20' E 028°40'0 0.0
2018-Jun-01 20:58N 44°20' E 028°40'0 0.0
2018-Jun-01 20:28N 44°20' E 028°40'0 0.0
2018-Jun-01 19:59N 44°20' E 028°40'0 0.0
2018-Jun-01 19:29N 44°20' E 028°40'0 0.0
2018-Jun-01 18:59N 44°20' E 028°40'0 0.0
2018-Jun-01 18:29N 44°20' E 028°40'0 0.0
2018-Jun-01 18:00N 44°20' E 028°40'0 0.0
2018-Jun-01 17:30N 44°20' E 028°40'0 0.0
2018-Jun-01 16:59N 44°20' E 028°40'0 0.0
2018-Jun-01 16:26N 44°20' E 028°40'0 0.0
2018-Jun-01 15:55N 44°20' E 028°40'0 0.0
2018-Jun-01 15:29N 44°20' E 028°40'0 0.0
2018-Jun-01 14:59N 44°20' E 028°40'0 0.0
2018-Jun-01 14:30N 44°20' E 028°40'0 0.0
2018-Jun-01 14:00N 44°20' E 028°40'0 0.0
2018-Jun-01 13:29N 44°20' E 028°40'0 0.0
2018-Jun-01 12:57N 44°20' E 028°40'0 0.0
2018-Jun-01 12:30N 44°20' E 028°40'0 0.0
2018-Jun-01 11:54N 44°20' E 028°40'0 0.0
2018-Jun-01 11:30N 44°20' E 028°40'0 0.0
2018-Jun-01 10:59N 44°20' E 028°40'0 0.0
2018-Jun-01 10:29N 44°20' E 028°40'0 0.0
2018-Jun-01 09:59N 44°20' E 028°40'0 0.0
2018-Jun-01 09:30N 44°20' E 028°40'0 0.0
2018-Jun-01 08:59N 44°20' E 028°40'0 0.0
2018-Jun-01 08:29N 44°20' E 028°40'0 0.0
2018-Jun-01 07:59N 44°20' E 028°40'0 0.0
2018-Jun-01 07:29N 44°20' E 028°40'0 0.0
2018-Jun-01 06:59N 44°20' E 028°40'0 0.0
2018-Jun-01 06:30N 44°20' E 028°40'0 0.0
2018-Jun-01 05:58N 44°20' E 028°40'0 0.0
2018-Jun-01 05:28N 44°20' E 028°40'0 0.0
2018-Jun-01 04:59N 44°20' E 028°40'0 0.0
2018-Jun-01 04:26N 44°20' E 028°40'0 0.0
2018-Jun-01 03:55N 44°20' E 028°40'0 0.0
2018-Jun-01 03:29N 44°20' E 028°40'0 0.0
2018-Jun-01 02:59N 44°20' E 028°40'0 0.0
2018-Jun-01 02:28N 44°20' E 028°40'0 0.0
2018-Jun-01 01:55N 44°20' E 028°40'0 0.0
2018-Jun-01 01:29N 44°20' E 028°40'0 0.0
2018-Jun-01 00:59N 44°20' E 028°40'0 0.0
2018-Jun-01 00:24N 44°20' E 028°40'0 0.0
2018-May-31 23:55N 44°20' E 028°40'0 0.0
2018-May-31 23:28N 44°20' E 028°40'0 0.0
2018-May-31 22:57N 44°20' E 028°40'0 0.0
2018-May-31 22:30N 44°20' E 028°40'0 0.0
2018-May-31 22:00N 44°20' E 028°40'0 0.0
2018-May-31 21:23N 44°20' E 028°40'0 0.0
2018-May-31 21:00N 44°20' E 028°40'0 0.8
2018-May-31 20:31N 44°20' E 028°41'2 4.6
2018-May-31 20:01N 44°18' E 028°43'4 7.5
2018-May-31 19:31N 44°15' E 028°46'4 8.4
2018-May-31 19:01N 44°12' E 028°50'4 8.4
2018-May-31 18:31N 44°09' E 028°54'4 8.0
2018-May-31 18:01N 44°05' E 028°57'4 8.5
2018-May-31 17:31N 44°01' E 028°57'4 7.1
2018-May-31 17:01N 43°58' E 028°57'4 7.0
2018-May-31 16:31N 43°54' E 028°58'4 7.4
2018-May-31 16:00N 43°50' E 028°58'4 7.5
2018-May-31 15:31N 43°47' E 028°58'4 8.6
2018-May-31 15:00N 43°42' E 028°58'4 8.7
2018-May-31 14:31N 43°38' E 028°59'4 8.5
2018-May-31 14:01N 43°34' E 028°59'4 8.4
2018-May-31 13:31N 43°30' E 028°60'4 8.3
2018-May-31 12:59N 43°25' E 029°00'4 8.1
2018-May-31 12:31N 43°22' E 029°01'4 7.9
2018-May-31 12:00N 43°17' E 029°01'4 8.0
2018-May-31 11:30N 43°14' E 029°01'4 8.1
2018-May-31 11:00N 43°09' E 029°01'41 7.7
2018-May-31 05:38N 42°28' E 029°02'1 7.2
2018-May-31 05:27N 42°27' E 029°03'4 7.2
2018-May-31 04:56N 42°23' E 029°03'3 7.1
2018-May-31 04:30N 42°20' E 029°04'4 7.2
2018-May-31 03:59N 42°17' E 029°05'3 7.2
2018-May-31 03:30N 42°13' E 029°06'4 7.1
2018-May-31 03:01N 42°10' E 029°07'3 6.8
2018-May-31 02:30N 42°06' E 029°08'  

Dump ship's entire track history